Ana Sayfa
METAR-TAF:

METAR-TAF

Havaalanları :

Marshfield, Massachusetts, Amerika Birleşik Devletleri

Enlem: 42-05-54N, Boylam: 070-40-20W, yükseklik: 3 m

Güncel hava durumu gözlemi

Rapor saat 07:55 UTC de 24 dakika önce yapıldı.
Rüzgar kuzeydoğudan 7 kt ve 14 kt'a kadar ani rüzgarlar, kuzey ve doğu/kuzeydoğu arasında değişken
Sıcaklık 6°C
Nem 100%
Basınç 1013 hPa
Görüş mesafesi: 2.0 km
200 ft yükseklikte çok bulutlu
Pus

METAR: KGHG 300755Z AUTO 04007G14KT 010V070 1 1/4SM BR OVC002 06/06 A2992 RMK AO2

Saat: 04:19 (08:19 UTC)


TAF: eksik

4.000'den fazla havaalanı için hava durumu gözlemleri ve tahminleri (METAR ve TAF raporları).

Kullanılabilir istasyonlar harita üzerinde sarı ve kırmızı noktalarla gösterilir.

İstasyonun adını görmek için fareyi noktanın üzerinde gezdirin.

Sonrasında hava gözlem ve tahminlerini görmek için tıklayın.

Haritayı değiştirmek için: yaklaştırmak için siyah artı işaretli yeşil düğmeye ve uzaklaştırmak için de eksi işaretli düğmeye hızla tıklayın; bitişik haritalar için yeşil okları kullanın.


METAR-TAF: